Ana Sayfa
METAR-TAF:

METAR-TAF

Havaalanları :

Siirt Havalimanı

Siirt, Türkiye

Enlem: 37-58-41N, Boylam: 41-50-21E, yükseklik: 610 m

METAR: eksik

Saat: 11:15 (08:15 UTC)

Tahmin

Rapor saat 04:40 UTC de 3 saat ve 35 dakika önce yapıldı.
Ayın 14'si saat 06 UTC'den ayın 14'si saat 15 UTC'ye kadar geçerli Tahmin
Rüzgar değişken yönden 2 kt
Görüş mesafesi 10 km veya daha fazla
4000 ft yükseklikte az bulutlu
10000 ft yükseklikte parçalı bulutlu

TAF: LTCL 140440Z 1406/1415 VRB02KT 9999 FEW040 SCT100

4.000'den fazla havaalanı için hava durumu gözlemleri ve tahminleri (METAR ve TAF raporları).

Kullanılabilir istasyonlar harita üzerinde sarı ve kırmızı noktalarla gösterilir.

İstasyonun adını görmek için fareyi noktanın üzerinde gezdirin.

Sonrasında hava gözlem ve tahminlerini görmek için tıklayın.

Haritayı değiştirmek için: yaklaştırmak için siyah artı işaretli yeşil düğmeye ve uzaklaştırmak için de eksi işaretli düğmeye hızla tıklayın; bitişik haritalar için yeşil okları kullanın.


METAR-TAF: